Nearby METAR Reports

 

KOXC - Oxford/Waterbury, Connecticut, USA
Distance from station: NW 7mi, 11km
Updated: 04/24/2018 7:51am
Clear
Clear
 Wind from calm
Wind: Calm
Temperature: 45°F , 7°C
Dew Point: 43°F , 6°C
Humidity: 93%
Barometer: 30.42 inHg , 1030.1 hPa
Clouds: Clear
Visibility: 10 miles , 16 km
2018/04/24 11:51 KOXC 241151Z 00000KT 10SM CLR 07/06 A3042 RMK AO2 SLP314 T00720056 10072 20022 51006
KHVN - New Haven/Tweed, Connecticut, USA
Distance from station: SE 13mi, 20km
Updated: 04/24/2018 7:53am
Clear
Clear
 Wind from ENE
Wind: ENE 3 mph , 6 km/h
Temperature: 46°F , 8°C
Dew Point: 43°F , 6°C
Humidity: 87%
Barometer: 30.43 inHg , 1030.5 hPa
Clouds: Clear
Visibility: 10 miles , 16 km
2018/04/24 11:53 KHVN 241153Z 07003KT 10SM CLR 08/06 A3043 RMK AO2 SLP302 T00830056 10083 20011 50004
 
KMMK - Meriden, Connecticut, USA
Distance from station: NE 13mi, 21km
Updated: 04/24/2018 7:53am
Clear
Clear
 Wind from calm
Wind: Calm
Temperature: 43°F , 6°C
Dew Point: 37°F , 3°C
Humidity: 81%
Barometer: 30.43 inHg , 1030.5 hPa
Clouds: Clear
Visibility: 10 miles , 16 km
2018/04/24 11:53 KMMK 241153Z AUTO 00000KT 10SM CLR 06/03 A3043 RMK AO2 SLP306 T00560033 10056 21006 51006
KBDR - Bridgeport, Connecticut, USA
Distance from station: SSW 17mi, 27km
Updated: 04/24/2018 7:52am
Clear
Clear
 Wind from NE
Wind: NE 5 mph , 7 km/h
Temperature: 46°F , 8°C
Wind Chill: 44°F , 7°C
Dew Point: 39°F , 4°C
Humidity: 76%
Barometer: 30.43 inHg , 1030.5 hPa
Clouds: Clear
Visibility: 7 miles , 11 km
2018/04/24 11:52 KBDR 241152Z 05004KT 7SM CLR 08/04 A3043 RMK AO2 SLP302 T00780044 10078 20039 50005
 
KDXR - Danbury, Connecticut, USA
Distance from station: W 23mi, 38km
Updated: 04/24/2018 7:53am
Clear
Clear
 Wind from calm
Wind: Calm
Temperature: 39°F , 4°C
Dew Point: 30°F , -1°C
Humidity: 70%
Barometer: 30.43 inHg , 1030.5 hPa
Clouds: Clear
Visibility: 9 miles , 14 km
2018/04/24 11:53 KDXR 241153Z 00000KT 9SM CLR 04/M01 A3043 RMK AO2 SLP304 T00441006 10044 21006 51006 $